<?xml version="1.0" encoding="UTF-8" standalone="no" ?>
<gpx xmlns="http://www.topografix.com/GPX/1/1" xmlns:xsi="http://www.w3.org/2001/XMLSchema-instance" xsi:schemaLocation="http://www.topografix.com/GPX/1/1 http://www.topografix.com/GPX/1/1/gpx.xsd" version="1.1" creator="VisuGPX - https://www.visugpx.com">
  <metadata>
    <name>Les chevauchées au jardin de France 2022 dimanche 5 juin</name>
  </metadata>
  <wpt lat="47.18336" lon="0.05283">
    <ele>75.7</ele>
  </wpt>
  <wpt lat="47.18179" lon="0.04983">
    <ele>79.8</ele>
  </wpt>
  <wpt lat="47.17993" lon="0.09982">
    <ele>75.6</ele>
  </wpt>
  <wpt lat="47.17593" lon="0.10158">
    <ele>72.7</ele>
  </wpt>
  <wpt lat="47.19111" lon="0.06212">
    <ele>98</ele>
  </wpt>
  <wpt lat="47.19111" lon="0.06182">
    <ele>98</ele>
  </wpt>
  <wpt lat="47.19134" lon="0.06315">
    <ele>95.8</ele>
  </wpt>
  <wpt lat="47.19785" lon="0.06961">
    <ele>88.3</ele>
  </wpt>
  <wpt lat="47.21268" lon="0.0844">
    <ele>31.7</ele>
  </wpt>
  <wpt lat="47.21739" lon="0.08846">
    <ele>29</ele>
  </wpt>
  <wpt lat="47.21014" lon="0.08035">
    <ele>29</ele>
  </wpt>
  <wpt lat="47.21051" lon="0.07957">
    <ele>29</ele>
  </wpt>
  <wpt lat="47.20904" lon="0.07766">
    <ele>41.5</ele>
  </wpt>
  <wpt lat="47.19713" lon="0.0939">
    <ele>40.2</ele>
  </wpt>
  <wpt lat="47.19783" lon="0.09392">
    <ele>31.8</ele>
  </wpt>
  <trk>
    <name><![CDATA[14669678-Dimanche Chevauchées 2022 Sud Vienne chevaux]]></name>
    <extensions>
      <line xmlns="http://www.topografix.com/GPX/gpx_style/0/2">
        <color>0000FF</color>
        <width>4</width>
      </line>
    </extensions>
    <trkseg>
      <trkpt lat="47.22433" lon="0.12669">
        <ele>33</ele>
        <time>2022-04-30T19:09:53Z</time>
      </trkpt>
      <trkpt lat="47.22384" lon="0.12736">
        <ele>33</ele>
        <time>2022-04-30T19:10:47Z</time>
      </trkpt>
      <trkpt lat="47.22283" lon="0.12563">
        <ele>30</ele>
        <time>2022-04-30T19:12:51Z</time>
      </trkpt>
      <trkpt lat="47.22451" lon="0.12273">
        <ele>34</ele>
        <time>2022-04-30T19:16:18Z</time>
      </trkpt>
      <trkpt lat="47.22234" lon="0.12003">
        <ele>31</ele>
        <time>2022-04-30T19:20:05Z</time>
      </trkpt>
      <trkpt lat="47.22075" lon="0.11963">
        <ele>32</ele>
        <time>2022-04-30T19:22:14Z</time>
      </trkpt>
      <trkpt lat="47.22086" lon="0.11938">
        <ele>32</ele>
        <time>2022-04-30T19:22:31Z</time>
      </trkpt>
      <trkpt lat="47.21938" lon="0.11692">
        <ele>32.3</ele>
      </trkpt>
      <trkpt lat="47.21873" lon="0.11537">
        <ele>31</ele>
        <time>2022-04-30T19:27:08Z</time>
      </trkpt>
      <trkpt lat="47.22077" lon="0.1134">
        <ele>34</ele>
        <time>2022-04-30T19:30:23Z</time>
      </trkpt>
      <trkpt lat="47.21923" lon="0.11062">
        <ele>32</ele>
        <time>2022-04-30T19:33:38Z</time>
      </trkpt>
      <trkpt lat="47.2179" lon="0.109">
        <ele>32</ele>
        <time>2022-04-30T19:35:56Z</time>
      </trkpt>
      <trkpt lat="47.21803" lon="0.10862">
        <ele>31</ele>
        <time>2022-04-30T19:36:19Z</time>
      </trkpt>
      <trkpt lat="47.21774" lon="0.10788">
        <ele>31</ele>
        <time>2022-04-30T19:37:06Z</time>
      </trkpt>
      <trkpt lat="47.21719" lon="0.10735">
        <ele>31</ele>
        <time>2022-04-30T19:37:58Z</time>
      </trkpt>
      <trkpt lat="47.21673" lon="0.10749">
        <ele>31</ele>
        <time>2022-04-30T19:38:36Z</time>
      </trkpt>
      <trkpt lat="47.21552" lon="0.10933">
        <ele>33</ele>
        <time>2022-04-30T19:40:55Z</time>
      </trkpt>
      <trkpt lat="47.21534" lon="0.10976">
        <ele>33</ele>
        <time>2022-04-30T19:41:23Z</time>
      </trkpt>
      <trkpt lat="47.21506" lon="0.10998">
        <ele>31</ele>
        <time>2022-04-30T19:41:48Z</time>
      </trkpt>
      <trkpt lat="47.21506" lon="0.10953">
        <ele>31</ele>
        <time>2022-04-30T19:42:13Z</time>
      </trkpt>
      <trkpt lat="47.21492" lon="0.10769">
        <ele>35</ele>
        <time>2022-04-30T19:43:53Z</time>
      </trkpt>
      <trkpt lat="47.21497" lon="0.10727">
        <ele>36</ele>
        <time>2022-04-30T19:44:17Z</time>
      </trkpt>
      <trkpt lat="47.21452" lon="0.1019">
        <ele>37</ele>
        <time>2022-04-30T19:49:11Z</time>
      </trkpt>
      <trkpt lat="47.2142" lon="0.09874">
        <ele>35</ele>
        <time>2022-04-30T19:52:05Z</time>
      </trkpt>
      <trkpt lat="47.21418" lon="0.09733">
        <ele>36</ele>
        <time>2022-04-30T19:53:21Z</time>
      </trkpt>
      <trkpt lat="47.21423" lon="0.09694">
        <ele>37</ele>
        <time>2022-04-30T19:53:43Z</time>
      </trkpt>
      <trkpt lat="47.21418" lon="0.09636">
        <ele>39</ele>
        <time>2022-04-30T19:54:15Z</time>
      </trkpt>
      <trkpt lat="47.21411" lon="0.09501">
        <ele>41</ele>
        <time>2022-04-30T19:55:28Z</time>
      </trkpt>
      <trkpt lat="47.21372" lon="0.09345">
        <ele>34</ele>
        <time>2022-04-30T19:56:59Z</time>
      </trkpt>
      <trkpt lat="47.21371" lon="0.09268">
        <ele>32</ele>
        <time>2022-04-30T19:57:41Z</time>
      </trkpt>
      <trkpt lat="47.21381" lon="0.09211">
        <ele>34</ele>
        <time>2022-04-30T19:58:13Z</time>
      </trkpt>
      <trkpt lat="47.21376" lon="0.09098">
        <ele>37</ele>
        <time>2022-04-30T19:59:14Z</time>
      </trkpt>
      <trkpt lat="47.21383" lon="0.0899">
        <ele>38</ele>
        <time>2022-04-30T20:00:13Z</time>
      </trkpt>
      <trkpt lat="47.21371" lon="0.08907">
        <ele>35</ele>
        <time>2022-04-30T20:00:59Z</time>
      </trkpt>
      <trkpt lat="47.21326" lon="0.08784">
        <ele>36</ele>
        <time>2022-04-30T20:02:15Z</time>
      </trkpt>
      <trkpt lat="47.2127" lon="0.08486">
        <ele>35</ele>
        <time>2022-04-30T20:05:03Z</time>
      </trkpt>
      <trkpt lat="47.21268" lon="0.08428">
        <ele>35</ele>
        <time>2022-04-30T20:05:35Z</time>
      </trkpt>
      <trkpt lat="47.21277" lon="0.08379">
        <ele>35</ele>
        <time>2022-04-30T20:06:03Z</time>
      </trkpt>
      <trkpt lat="47.21125" lon="0.08139">
        <ele>31</ele>
        <time>2022-04-30T20:09:01Z</time>
      </trkpt>
      <trkpt lat="47.2092" lon="0.07818">
        <ele>37.4</ele>
        <time>2022-04-30T20:13:09Z</time>
      </trkpt>
      <trkpt lat="47.20963" lon="0.07778">
        <ele>36</ele>
        <time>2022-04-30T20:13:52Z</time>
      </trkpt>
      <trkpt lat="47.21016" lon="0.07699">
        <ele>35</ele>
        <time>2022-04-30T20:14:53Z</time>
      </trkpt>
      <trkpt lat="47.21032" lon="0.07672">
        <ele>33</ele>
        <time>2022-04-30T20:15:28Z</time>
      </trkpt>
      <trkpt lat="47.21052" lon="0.0765">
        <ele>34</ele>
        <time>2022-04-30T20:15:50Z</time>
      </trkpt>
      <trkpt lat="47.21064" lon="0.07671">
        <ele>29</ele>
        <time>2022-04-30T20:16:14Z</time>
      </trkpt>
      <trkpt lat="47.21085" lon="0.07652">
        <ele>30.5</ele>
      </trkpt>
      <trkpt lat="47.21103" lon="0.07619">
        <ele>30.1</ele>
        <time>2022-04-30T20:16:42Z</time>
      </trkpt>
      <trkpt lat="47.21134" lon="0.07582">
        <ele>31</ele>
        <time>2022-04-30T20:17:15Z</time>
      </trkpt>
      <trkpt lat="47.21166" lon="0.07533">
        <ele>29.1</ele>
        <time>2022-04-30T20:18:26Z</time>
      </trkpt>
      <trkpt lat="47.21177" lon="0.07527">
        <ele>29.1</ele>
      </trkpt>
      <trkpt lat="47.21199" lon="0.07497">
        <ele>29.3</ele>
      </trkpt>
      <trkpt lat="47.2122" lon="0.07452">
        <ele>30</ele>
      </trkpt>
      <trkpt lat="47.21225" lon="0.07445">
        <ele>29.9</ele>
      </trkpt>
      <trkpt lat="47.2124" lon="0.0742">
        <ele>30.3</ele>
      </trkpt>
      <trkpt lat="47.21254" lon="0.07388">
        <ele>29.9</ele>
        <time>2022-04-30T20:19:38Z</time>
      </trkpt>
      <trkpt lat="47.21292" lon="0.07242">
        <ele>31.1</ele>
      </trkpt>
      <trkpt lat="47.21299" lon="0.07209">
        <ele>32</ele>
        <time>2022-04-30T20:21:22Z</time>
      </trkpt>
      <trkpt lat="47.21303" lon="0.07173">
        <ele>30.3</ele>
      </trkpt>
      <trkpt lat="47.21335" lon="0.07092">
        <ele>29</ele>
        <time>2022-04-30T20:22:59Z</time>
      </trkpt>
      <trkpt lat="47.2134" lon="0.07054">
        <ele>31.3</ele>
      </trkpt>
      <trkpt lat="47.2136" lon="0.07018">
        <ele>29.6</ele>
      </trkpt>
      <trkpt lat="47.21441" lon="0.06792">
        <ele>29.5</ele>
        <time>2022-04-30T20:25:39Z</time>
      </trkpt>
      <trkpt lat="47.21447" lon="0.06762">
        <ele>30.1</ele>
      </trkpt>
      <trkpt lat="47.21446" lon="0.06741">
        <ele>30.9</ele>
      </trkpt>
      <trkpt lat="47.21436" lon="0.06752">
        <ele>31.8</ele>
      </trkpt>
      <trkpt lat="47.21428" lon="0.06749">
        <ele>32.8</ele>
      </trkpt>
      <trkpt lat="47.2142" lon="0.0675">
        <ele>33.6</ele>
        <time>2022-04-30T20:26:01Z</time>
      </trkpt>
      <trkpt lat="47.21424" lon="0.06668">
        <ele>33</ele>
        <time>2022-04-30T20:26:49Z</time>
      </trkpt>
      <trkpt lat="47.21418" lon="0.06658">
        <ele>32.4</ele>
      </trkpt>
      <trkpt lat="47.21396" lon="0.06666">
        <ele>34</ele>
        <time>2022-04-30T20:27:11Z</time>
      </trkpt>
      <trkpt lat="47.21375" lon="0.06695">
        <ele>36.6</ele>
      </trkpt>
      <trkpt lat="47.21348" lon="0.06723">
        <ele>41.5</ele>
        <time>2022-04-30T20:28:00Z</time>
      </trkpt>
      <trkpt lat="47.21341" lon="0.06736">
        <ele>43.1</ele>
      </trkpt>
      <trkpt lat="47.21333" lon="0.06761">
        <ele>46</ele>
        <time>2022-04-30T20:28:26Z</time>
      </trkpt>
      <trkpt lat="47.21293" lon="0.06775">
        <ele>49.3</ele>
        <time>2022-04-30T20:28:59Z</time>
      </trkpt>
      <trkpt lat="47.21224" lon="0.06806">
        <ele>55</ele>
        <time>2022-04-30T20:29:56Z</time>
      </trkpt>
      <trkpt lat="47.21196" lon="0.06857">
        <ele>61.8</ele>
      </trkpt>
      <trkpt lat="47.21163" lon="0.06949">
        <ele>63.2</ele>
        <time>2022-04-30T20:32:35Z</time>
      </trkpt>
      <trkpt lat="47.21126" lon="0.07028">
        <ele>64.5</ele>
      </trkpt>
      <trkpt lat="47.21027" lon="0.07187">
        <ele>63</ele>
        <time>2022-04-30T20:34:17Z</time>
      </trkpt>
      <trkpt lat="47.21004" lon="0.07342">
        <ele>65</ele>
        <time>2022-04-30T20:35:43Z</time>
      </trkpt>
      <trkpt lat="47.20996" lon="0.07356">
        <ele>65.3</ele>
      </trkpt>
      <trkpt lat="47.20985" lon="0.07407">
        <ele>68</ele>
        <time>2022-04-30T20:36:29Z</time>
      </trkpt>
      <trkpt lat="47.20968" lon="0.0742">
        <ele>71.2</ele>
      </trkpt>
      <trkpt lat="47.2095" lon="0.07443">
        <ele>69</ele>
        <time>2022-04-30T20:36:55Z</time>
      </trkpt>
      <trkpt lat="47.2093" lon="0.07474">
        <ele>82.5</ele>
      </trkpt>
      <trkpt lat="47.20913" lon="0.07492">
        <ele>83.4</ele>
        <time>2022-04-30T20:37:21Z</time>
      </trkpt>
      <trkpt lat="47.20887" lon="0.0752">
        <ele>84.7</ele>
      </trkpt>
      <trkpt lat="47.2088" lon="0.07542">
        <ele>85.7</ele>
        <time>2022-04-30T20:38:12Z</time>
      </trkpt>
      <trkpt lat="47.20857" lon="0.07584">
        <ele>86.8</ele>
        <time>2022-04-30T20:38:42Z</time>
      </trkpt>
      <trkpt lat="47.20819" lon="0.07612">
        <ele>80</ele>
        <time>2022-04-30T20:39:16Z</time>
      </trkpt>
      <trkpt lat="47.208" lon="0.07547">
        <ele>84.9</ele>
      </trkpt>
      <trkpt lat="47.20726" lon="0.07395">
        <ele>80</ele>
        <time>2022-04-30T20:41:36Z</time>
      </trkpt>
      <trkpt lat="47.20671" lon="0.07335">
        <ele>82</ele>
        <time>2022-04-30T20:42:31Z</time>
      </trkpt>
      <trkpt lat="47.2056" lon="0.07203">
        <ele>82</ele>
        <time>2022-04-30T20:44:25Z</time>
      </trkpt>
      <trkpt lat="47.20599" lon="0.07141">
        <ele>82</ele>
        <time>2022-04-30T20:45:11Z</time>
      </trkpt>
      <trkpt lat="47.20609" lon="0.07107">
        <ele>82</ele>
        <time>2022-04-30T20:45:31Z</time>
      </trkpt>
      <trkpt lat="47.20653" lon="0.07052">
        <ele>81</ele>
        <time>2022-04-30T20:46:17Z</time>
      </trkpt>
      <trkpt lat="47.20593" lon="0.07035">
        <ele>82</ele>
        <time>2022-04-30T20:47:06Z</time>
      </trkpt>
      <trkpt lat="47.20495" lon="0.07003">
        <ele>83</ele>
        <time>2022-04-30T20:48:27Z</time>
      </trkpt>
      <trkpt lat="47.20401" lon="0.07017">
        <ele>82</ele>
        <time>2022-04-30T20:49:42Z</time>
      </trkpt>
      <trkpt lat="47.20342" lon="0.07001">
        <ele>83</ele>
        <time>2022-04-30T20:50:30Z</time>
      </trkpt>
      <trkpt lat="47.20033" lon="0.06976">
        <ele>87</ele>
        <time>2022-04-30T20:54:38Z</time>
      </trkpt>
      <trkpt lat="47.19849" lon="0.06965">
        <ele>86</ele>
        <time>2022-04-30T20:57:06Z</time>
      </trkpt>
      <trkpt lat="47.19844" lon="0.0697">
        <ele>86</ele>
        <time>2022-04-30T20:57:10Z</time>
      </trkpt>
      <trkpt lat="47.1966" lon="0.06974">
        <ele>86</ele>
        <time>2022-04-30T20:59:38Z</time>
      </trkpt>
      <trkpt lat="47.19604" lon="0.0698">
        <ele>83</ele>
        <time>2022-04-30T21:00:23Z</time>
      </trkpt>
      <trkpt lat="47.19528" lon="0.06979">
        <ele>81</ele>
        <time>2022-04-30T21:01:24Z</time>
      </trkpt>
      <trkpt lat="47.19477" lon="0.07175">
        <ele>80</ele>
        <time>2022-04-30T21:03:18Z</time>
      </trkpt>
      <trkpt lat="47.19402" lon="0.07378">
        <ele>83</ele>
        <time>2022-04-30T21:05:23Z</time>
      </trkpt>
      <trkpt lat="47.19373" lon="0.07403">
        <ele>84</ele>
        <time>2022-04-30T21:05:50Z</time>
      </trkpt>
      <trkpt lat="47.1935" lon="0.07454">
        <ele>84</ele>
        <time>2022-04-30T21:06:24Z</time>
      </trkpt>
      <trkpt lat="47.19212" lon="0.07565">
        <ele>87</ele>
        <time>2022-04-30T21:08:30Z</time>
      </trkpt>
      <trkpt lat="47.19161" lon="0.07472">
        <ele>88</ele>
        <time>2022-04-30T21:09:35Z</time>
      </trkpt>
      <trkpt lat="47.18981" lon="0.07245">
        <ele>96</ele>
        <time>2022-04-30T21:12:44Z</time>
      </trkpt>
      <trkpt lat="47.18843" lon="0.07087">
        <ele>103</ele>
        <time>2022-04-30T21:15:04Z</time>
      </trkpt>
      <trkpt lat="47.18869" lon="0.06978">
        <ele>103</ele>
        <time>2022-04-30T21:16:07Z</time>
      </trkpt>
      <trkpt lat="47.18956" lon="0.06771">
        <ele>100</ele>
        <time>2022-04-30T21:18:20Z</time>
      </trkpt>
      <trkpt lat="47.18976" lon="0.06662">
        <ele>100</ele>
        <time>2022-04-30T21:19:21Z</time>
      </trkpt>
      <trkpt lat="47.19036" lon="0.0668">
        <ele>99</ele>
        <time>2022-04-30T21:20:10Z</time>
      </trkpt>
      <trkpt lat="47.19068" lon="0.06573">
        <ele>97</ele>
        <time>2022-04-30T21:21:14Z</time>
      </trkpt>
      <trkpt lat="47.19085" lon="0.06475">
        <ele>98</ele>
        <time>2022-04-30T21:22:09Z</time>
      </trkpt>
      <trkpt lat="47.19112" lon="0.06439">
        <ele>95</ele>
        <time>2022-04-30T21:22:38Z</time>
      </trkpt>
      <trkpt lat="47.19124" lon="0.06372">
        <ele>98</ele>
        <time>2022-04-30T21:23:16Z</time>
      </trkpt>
      <trkpt lat="47.19108" lon="0.06323">
        <ele>102</ele>
        <time>2022-04-30T21:23:45Z</time>
      </trkpt>
      <trkpt lat="47.19104" lon="0.06268">
        <ele>103</ele>
        <time>2022-04-30T21:24:15Z</time>
      </trkpt>
      <trkpt lat="47.19105" lon="0.06226">
        <ele>104</ele>
        <time>2022-04-30T21:24:38Z</time>
      </trkpt>
      <trkpt lat="47.19072" lon="0.06185">
        <ele>105</ele>
        <time>2022-04-30T21:25:13Z</time>
      </trkpt>
      <trkpt lat="47.19064" lon="0.06162">
        <ele>106</ele>
        <time>2022-04-30T21:25:27Z</time>
      </trkpt>
      <trkpt lat="47.1908" lon="0.06085">
        <ele>103</ele>
        <time>2022-04-30T21:26:11Z</time>
      </trkpt>
      <trkpt lat="47.1909" lon="0.05941">
        <ele>98</ele>
        <time>2022-04-30T21:27:29Z</time>
      </trkpt>
      <trkpt lat="47.1911" lon="0.05839">
        <ele>94</ele>
        <time>2022-04-30T21:28:27Z</time>
      </trkpt>
      <trkpt lat="47.19144" lon="0.05715">
        <ele>90</ele>
        <time>2022-04-30T21:29:40Z</time>
      </trkpt>
      <trkpt lat="47.19152" lon="0.05641">
        <ele>91</ele>
        <time>2022-04-30T21:30:21Z</time>
      </trkpt>
      <trkpt lat="47.19174" lon="0.05466">
        <ele>89</ele>
        <time>2022-04-30T21:31:58Z</time>
      </trkpt>
      <trkpt lat="47.19141" lon="0.05451">
        <ele>92</ele>
        <time>2022-04-30T21:32:25Z</time>
      </trkpt>
      <trkpt lat="47.19049" lon="0.05437">
        <ele>99</ele>
        <time>2022-04-30T21:33:39Z</time>
      </trkpt>
      <trkpt lat="47.19001" lon="0.05459">
        <ele>100</ele>
        <time>2022-04-30T21:34:19Z</time>
      </trkpt>
      <trkpt lat="47.18971" lon="0.0546">
        <ele>101</ele>
        <time>2022-04-30T21:34:44Z</time>
      </trkpt>
      <trkpt lat="47.18862" lon="0.05363">
        <ele>105</ele>
        <time>2022-04-30T21:36:26Z</time>
      </trkpt>
      <trkpt lat="47.18743" lon="0.05301">
        <ele>106</ele>
        <time>2022-04-30T21:38:07Z</time>
      </trkpt>
      <trkpt lat="47.18706" lon="0.05318">
        <ele>106</ele>
        <time>2022-04-30T21:38:38Z</time>
      </trkpt>
      <trkpt lat="47.18701" lon="0.05353">
        <ele>106</ele>
        <time>2022-04-30T21:38:57Z</time>
      </trkpt>
      <trkpt lat="47.18676" lon="0.05363">
        <ele>107</ele>
        <time>2022-04-30T21:39:18Z</time>
      </trkpt>
      <trkpt lat="47.18648" lon="0.05424">
        <ele>106</ele>
        <time>2022-04-30T21:39:58Z</time>
      </trkpt>
      <trkpt lat="47.18578" lon="0.05476">
        <ele>106</ele>
        <time>2022-04-30T21:41:01Z</time>
      </trkpt>
      <trkpt lat="47.18551" lon="0.05536">
        <ele>106</ele>
        <time>2022-04-30T21:41:40Z</time>
      </trkpt>
      <trkpt lat="47.18495" lon="0.05588">
        <ele>106</ele>
        <time>2022-04-30T21:42:33Z</time>
      </trkpt>
      <trkpt lat="47.18477" lon="0.05591">
        <ele>107</ele>
        <time>2022-04-30T21:42:47Z</time>
      </trkpt>
      <trkpt lat="47.18447" lon="0.0558">
        <ele>107</ele>
        <time>2022-04-30T21:43:12Z</time>
      </trkpt>
      <trkpt lat="47.18403" lon="0.05595">
        <ele>108</ele>
        <time>2022-04-30T21:43:48Z</time>
      </trkpt>
      <trkpt lat="47.18346" lon="0.05628">
        <ele>106</ele>
        <time>2022-04-30T21:44:37Z</time>
      </trkpt>
      <trkpt lat="47.18326" lon="0.05655">
        <ele>104</ele>
        <time>2022-04-30T21:44:59Z</time>
      </trkpt>
      <trkpt lat="47.18324" lon="0.05604">
        <ele>104</ele>
        <time>2022-04-30T21:45:27Z</time>
      </trkpt>
      <trkpt lat="47.18298" lon="0.05508">
        <ele>97</ele>
        <time>2022-04-30T21:46:23Z</time>
      </trkpt>
      <trkpt lat="47.18279" lon="0.05461">
        <ele>90</ele>
        <time>2022-04-30T21:46:53Z</time>
      </trkpt>
      <trkpt lat="47.18275" lon="0.05407">
        <ele>86</ele>
        <time>2022-04-30T21:47:22Z</time>
      </trkpt>
      <trkpt lat="47.18293" lon="0.05346">
        <ele>81</ele>
        <time>2022-04-30T21:47:59Z</time>
      </trkpt>
      <trkpt lat="47.18326" lon="0.05308">
        <ele>82</ele>
        <time>2022-04-30T21:48:32Z</time>
      </trkpt>
      <trkpt lat="47.18401" lon="0.0523">
        <ele>71</ele>
        <time>2022-04-30T21:49:46Z</time>
      </trkpt>
      <trkpt lat="47.18379" lon="0.05191">
        <ele>66</ele>
        <time>2022-04-30T21:50:13Z</time>
      </trkpt>
      <trkpt lat="47.18363" lon="0.05053">
        <ele>68</ele>
        <time>2022-04-30T21:51:29Z</time>
      </trkpt>
      <trkpt lat="47.18252" lon="0.05048">
        <ele>76</ele>
        <time>2022-04-30T21:52:58Z</time>
      </trkpt>
      <trkpt lat="47.18206" lon="0.05035">
        <ele>78</ele>
        <time>2022-04-30T21:53:36Z</time>
      </trkpt>
      <trkpt lat="47.18203" lon="0.05187">
        <ele>69</ele>
        <time>2022-04-30T21:54:59Z</time>
      </trkpt>
      <trkpt lat="47.18179" lon="0.05265">
        <ele>68</ele>
        <time>2022-04-30T21:55:45Z</time>
      </trkpt>
      <trkpt lat="47.18224" lon="0.05349">
        <ele>70</ele>
        <time>2022-04-30T21:56:43Z</time>
      </trkpt>
      <trkpt lat="47.18201" lon="0.0543">
        <ele>73</ele>
        <time>2022-04-30T21:57:31Z</time>
      </trkpt>
      <trkpt lat="47.18161" lon="0.05458">
        <ele>68</ele>
        <time>2022-04-30T21:58:07Z</time>
      </trkpt>
      <trkpt lat="47.18164" lon="0.05492">
        <ele>70</ele>
        <time>2022-04-30T21:58:25Z</time>
      </trkpt>
      <trkpt lat="47.18154" lon="0.05508">
        <ele>71</ele>
        <time>2022-04-30T21:58:37Z</time>
      </trkpt>
      <trkpt lat="47.18079" lon="0.05496">
        <ele>75</ele>
        <time>2022-04-30T21:59:38Z</time>
      </trkpt>
      <trkpt lat="47.18044" lon="0.05439">
        <ele>74</ele>
        <time>2022-04-30T22:00:19Z</time>
      </trkpt>
      <trkpt lat="47.18028" lon="0.0543">
        <ele>75</ele>
        <time>2022-04-30T22:00:33Z</time>
      </trkpt>
      <trkpt lat="47.17959" lon="0.05575">
        <ele>79</ele>
        <time>2022-04-30T22:02:09Z</time>
      </trkpt>
      <trkpt lat="47.17803" lon="0.05464">
        <ele>80</ele>
        <time>2022-04-30T22:04:28Z</time>
      </trkpt>
      <trkpt lat="47.17789" lon="0.05526">
        <ele>81</ele>
        <time>2022-04-30T22:05:04Z</time>
      </trkpt>
      <trkpt lat="47.17784" lon="0.05632">
        <ele>83</ele>
        <time>2022-04-30T22:06:02Z</time>
      </trkpt>
      <trkpt lat="47.1777" lon="0.05756">
        <ele>84</ele>
        <time>2022-04-30T22:07:10Z</time>
      </trkpt>
      <trkpt lat="47.17651" lon="0.06113">
        <ele>80</ele>
        <time>2022-04-30T22:10:46Z</time>
      </trkpt>
      <trkpt lat="47.1762" lon="0.06177">
        <ele>82</ele>
        <time>2022-04-30T22:11:29Z</time>
      </trkpt>
      <trkpt lat="47.17607" lon="0.06248">
        <ele>85</ele>
        <time>2022-04-30T22:12:09Z</time>
      </trkpt>
      <trkpt lat="47.17604" lon="0.06295">
        <ele>88</ele>
        <time>2022-04-30T22:12:35Z</time>
      </trkpt>
      <trkpt lat="47.17547" lon="0.06707">
        <ele>96</ele>
        <time>2022-04-30T22:16:24Z</time>
      </trkpt>
      <trkpt lat="47.17538" lon="0.06768">
        <ele>97</ele>
        <time>2022-04-30T22:16:58Z</time>
      </trkpt>
      <trkpt lat="47.17536" lon="0.06827">
        <ele>98</ele>
        <time>2022-04-30T22:17:30Z</time>
      </trkpt>
      <trkpt lat="47.17526" lon="0.06909">
        <ele>101</ele>
        <time>2022-04-30T22:18:15Z</time>
      </trkpt>
      <trkpt lat="47.17543" lon="0.06987">
        <ele>103</ele>
        <time>2022-04-30T22:19:00Z</time>
      </trkpt>
      <trkpt lat="47.17587" lon="0.07116">
        <ele>106</ele>
        <time>2022-04-30T22:20:18Z</time>
      </trkpt>
      <trkpt lat="47.17593" lon="0.07195">
        <ele>107</ele>
        <time>2022-04-30T22:21:02Z</time>
      </trkpt>
      <trkpt lat="47.17587" lon="0.07386">
        <ele>112</ele>
        <time>2022-04-30T22:22:46Z</time>
      </trkpt>
      <trkpt lat="47.17575" lon="0.07615">
        <ele>109</ele>
        <time>2022-04-30T22:24:51Z</time>
      </trkpt>
      <trkpt lat="47.17573" lon="0.07719">
        <ele>104</ele>
        <time>2022-04-30T22:25:47Z</time>
      </trkpt>
      <trkpt lat="47.17584" lon="0.0777">
        <ele>102</ele>
        <time>2022-04-30T22:26:16Z</time>
      </trkpt>
      <trkpt lat="47.17565" lon="0.08049">
        <ele>93</ele>
        <time>2022-04-30T22:28:49Z</time>
      </trkpt>
      <trkpt lat="47.17563" lon="0.0809">
        <ele>91</ele>
        <time>2022-04-30T22:29:11Z</time>
      </trkpt>
      <trkpt lat="47.17571" lon="0.08134">
        <ele>92</ele>
        <time>2022-04-30T22:29:36Z</time>
      </trkpt>
      <trkpt lat="47.17585" lon="0.08168">
        <ele>92</ele>
        <time>2022-04-30T22:29:58Z</time>
      </trkpt>
      <trkpt lat="47.17595" lon="0.08154">
        <ele>93</ele>
        <time>2022-04-30T22:30:09Z</time>
      </trkpt>
      <trkpt lat="47.17685" lon="0.08119">
        <ele>98</ele>
        <time>2022-04-30T22:31:23Z</time>
      </trkpt>
      <trkpt lat="47.17711" lon="0.08105">
        <ele>100</ele>
        <time>2022-04-30T22:31:46Z</time>
      </trkpt>
      <trkpt lat="47.1776" lon="0.08102">
        <ele>101</ele>
        <time>2022-04-30T22:32:25Z</time>
      </trkpt>
      <trkpt lat="47.17804" lon="0.0807">
        <ele>98</ele>
        <time>2022-04-30T22:33:04Z</time>
      </trkpt>
      <trkpt lat="47.17829" lon="0.08058">
        <ele>96</ele>
        <time>2022-04-30T22:33:25Z</time>
      </trkpt>
      <trkpt lat="47.17847" lon="0.08043">
        <ele>95</ele>
        <time>2022-04-30T22:33:42Z</time>
      </trkpt>
      <trkpt lat="47.17871" lon="0.08017">
        <ele>93</ele>
        <time>2022-04-30T22:34:06Z</time>
      </trkpt>
      <trkpt lat="47.17903" lon="0.08">
        <ele>91</ele>
        <time>2022-04-30T22:34:33Z</time>
      </trkpt>
      <trkpt lat="47.17952" lon="0.0799">
        <ele>90</ele>
        <time>2022-04-30T22:35:12Z</time>
      </trkpt>
      <trkpt lat="47.18005" lon="0.07984">
        <ele>89</ele>
        <time>2022-04-30T22:35:55Z</time>
      </trkpt>
      <trkpt lat="47.18088" lon="0.07994">
        <ele>89</ele>
        <time>2022-04-30T22:37:02Z</time>
      </trkpt>
      <trkpt lat="47.18172" lon="0.07965">
        <ele>89</ele>
        <time>2022-04-30T22:38:11Z</time>
      </trkpt>
      <trkpt lat="47.18201" lon="0.07965">
        <ele>88</ele>
        <time>2022-04-30T22:38:34Z</time>
      </trkpt>
      <trkpt lat="47.1819" lon="0.08236">
        <ele>78</ele>
        <time>2022-04-30T22:41:02Z</time>
      </trkpt>
      <trkpt lat="47.18094" lon="0.08433">
        <ele>74</ele>
        <time>2022-04-30T22:43:14Z</time>
      </trkpt>
      <trkpt lat="47.18105" lon="0.08483">
        <ele>73</ele>
        <time>2022-04-30T22:43:42Z</time>
      </trkpt>
      <trkpt lat="47.18132" lon="0.08552">
        <ele>72</ele>
        <time>2022-04-30T22:44:26Z</time>
      </trkpt>
      <trkpt lat="47.18152" lon="0.08578">
        <ele>71</ele>
        <time>2022-04-30T22:44:47Z</time>
      </trkpt>
      <trkpt lat="47.18172" lon="0.08638">
        <ele>71</ele>
        <time>2022-04-30T22:45:23Z</time>
      </trkpt>
      <trkpt lat="47.18184" lon="0.08674">
        <ele>71</ele>
        <time>2022-04-30T22:45:45Z</time>
      </trkpt>
      <trkpt lat="47.18186" lon="0.08713">
        <ele>71</ele>
        <time>2022-04-30T22:46:06Z</time>
      </trkpt>
      <trkpt lat="47.1818" lon="0.0877">
        <ele>70</ele>
        <time>2022-04-30T22:46:38Z</time>
      </trkpt>
      <trkpt lat="47.18208" lon="0.08737">
        <ele>71</ele>
        <time>2022-04-30T22:47:07Z</time>
      </trkpt>
      <trkpt lat="47.18238" lon="0.08733">
        <ele>71</ele>
        <time>2022-04-30T22:47:31Z</time>
      </trkpt>
      <trkpt lat="47.18298" lon="0.08764">
        <ele>72</ele>
        <time>2022-04-30T22:48:22Z</time>
      </trkpt>
      <trkpt lat="47.18342" lon="0.08789">
        <ele>72</ele>
        <time>2022-04-30T22:48:59Z</time>
      </trkpt>
      <trkpt lat="47.1839" lon="0.0884">
        <ele>73</ele>
        <time>2022-04-30T22:49:47Z</time>
      </trkpt>
      <trkpt lat="47.18461" lon="0.0889">
        <ele>75</ele>
        <time>2022-04-30T22:50:50Z</time>
      </trkpt>
      <trkpt lat="47.18474" lon="0.08896">
        <ele>76</ele>
        <time>2022-04-30T22:51:01Z</time>
      </trkpt>
      <trkpt lat="47.18804" lon="0.09">
        <ele>80</ele>
        <time>2022-04-30T22:55:31Z</time>
      </trkpt>
      <trkpt lat="47.18877" lon="0.08831">
        <ele>82</ele>
        <time>2022-04-30T22:57:20Z</time>
      </trkpt>
      <trkpt lat="47.18982" lon="0.09016">
        <ele>82</ele>
        <time>2022-04-30T22:59:31Z</time>
      </trkpt>
      <trkpt lat="47.19421" lon="0.09529">
        <ele>85.6</ele>
        <time>2022-04-30T23:06:56Z</time>
      </trkpt>
      <trkpt lat="47.1942" lon="0.09568">
        <ele>82.3</ele>
        <time>2022-04-30T23:07:34Z</time>
      </trkpt>
      <trkpt lat="47.19437" lon="0.09594">
        <ele>73.6</ele>
      </trkpt>
      <trkpt lat="47.19437" lon="0.09616">
        <ele>68.8</ele>
        <time>2022-04-30T23:07:49Z</time>
      </trkpt>
      <trkpt lat="47.19398" lon="0.09684">
        <ele>67</ele>
        <time>2022-04-30T23:08:38Z</time>
      </trkpt>
      <trkpt lat="47.19377" lon="0.09706">
        <ele>69.1</ele>
      </trkpt>
      <trkpt lat="47.19367" lon="0.09739">
        <ele>62</ele>
        <time>2022-04-30T23:09:07Z</time>
      </trkpt>
      <trkpt lat="47.19311" lon="0.09798">
        <ele>69.7</ele>
        <time>2022-04-30T23:10:16Z</time>
      </trkpt>
      <trkpt lat="47.19259" lon="0.09862">
        <ele>72</ele>
        <time>2022-04-30T23:11:11Z</time>
      </trkpt>
      <trkpt lat="47.19178" lon="0.09977">
        <ele>71</ele>
        <time>2022-04-30T23:12:41Z</time>
      </trkpt>
      <trkpt lat="47.19183" lon="0.0999">
        <ele>65.5</ele>
      </trkpt>
      <trkpt lat="47.19232" lon="0.09967">
        <ele>62</ele>
        <time>2022-04-30T23:13:25Z</time>
      </trkpt>
      <trkpt lat="47.19305" lon="0.10089">
        <ele>33.8</ele>
        <time>2022-04-30T23:14:52Z</time>
      </trkpt>
      <trkpt lat="47.19448" lon="0.09947">
        <ele>34</ele>
        <time>2022-04-30T23:17:13Z</time>
      </trkpt>
      <trkpt lat="47.19699" lon="0.0979">
        <ele>32</ele>
        <time>2022-04-30T23:20:51Z</time>
      </trkpt>
      <trkpt lat="47.19777" lon="0.09698">
        <ele>32</ele>
        <time>2022-04-30T23:22:11Z</time>
      </trkpt>
      <trkpt lat="47.19876" lon="0.09572">
        <ele>33</ele>
        <time>2022-04-30T23:23:56Z</time>
      </trkpt>
      <trkpt lat="47.19896" lon="0.09558">
        <ele>33</ele>
        <time>2022-04-30T23:24:14Z</time>
      </trkpt>
      <trkpt lat="47.1995" lon="0.09486">
        <ele>33</ele>
        <time>2022-04-30T23:25:12Z</time>
      </trkpt>
      <trkpt lat="47.20033" lon="0.09351">
        <ele>31</ele>
        <time>2022-04-30T23:26:51Z</time>
      </trkpt>
      <trkpt lat="47.20117" lon="0.09215">
        <ele>31</ele>
        <time>2022-04-30T23:28:31Z</time>
      </trkpt>
      <trkpt lat="47.20183" lon="0.09134">
        <ele>33</ele>
        <time>2022-04-30T23:29:40Z</time>
      </trkpt>
      <trkpt lat="47.20244" lon="0.09017">
        <ele>36</ele>
        <time>2022-04-30T23:31:00Z</time>
      </trkpt>
      <trkpt lat="47.20304" lon="0.08895">
        <ele>36</ele>
        <time>2022-04-30T23:32:22Z</time>
      </trkpt>
      <trkpt lat="47.20344" lon="0.08764">
        <ele>36</ele>
        <time>2022-04-30T23:33:40Z</time>
      </trkpt>
      <trkpt lat="47.20418" lon="0.08642">
        <ele>35</ele>
        <time>2022-04-30T23:35:09Z</time>
      </trkpt>
      <trkpt lat="47.20492" lon="0.08506">
        <ele>33</ele>
        <time>2022-04-30T23:36:44Z</time>
      </trkpt>
      <trkpt lat="47.20567" lon="0.0836">
        <ele>36</ele>
        <time>2022-04-30T23:38:23Z</time>
      </trkpt>
      <trkpt lat="47.20607" lon="0.08287">
        <ele>37</ele>
        <time>2022-04-30T23:39:14Z</time>
      </trkpt>
      <trkpt lat="47.20685" lon="0.08182">
        <ele>34</ele>
        <time>2022-04-30T23:40:39Z</time>
      </trkpt>
      <trkpt lat="47.20703" lon="0.08157">
        <ele>34</ele>
        <time>2022-04-30T23:40:59Z</time>
      </trkpt>
      <trkpt lat="47.20717" lon="0.08118">
        <ele>35</ele>
        <time>2022-04-30T23:41:23Z</time>
      </trkpt>
      <trkpt lat="47.20699" lon="0.08136">
        <ele>35.3</ele>
        <time>2022-04-30T23:41:40Z</time>
      </trkpt>
      <trkpt lat="47.20699" lon="0.08124">
        <ele>37</ele>
        <time>2022-04-30T23:41:47Z</time>
      </trkpt>
      <trkpt lat="47.207" lon="0.08109">
        <ele>37.1</ele>
        <time>2022-04-30T23:41:57Z</time>
      </trkpt>
      <trkpt lat="47.20769" lon="0.08011">
        <ele>36.7</ele>
        <time>2022-04-30T23:43:16Z</time>
      </trkpt>
      <trkpt lat="47.20851" lon="0.07903">
        <ele>37.5</ele>
        <time>2022-04-30T23:44:41Z</time>
      </trkpt>
      <trkpt lat="47.2089" lon="0.07846">
        <ele>38.4</ele>
      </trkpt>
      <trkpt lat="47.209" lon="0.07835">
        <ele>38</ele>
        <time>2022-04-30T23:45:42Z</time>
      </trkpt>
      <trkpt lat="47.20906" lon="0.07827">
        <ele>38.3</ele>
      </trkpt>
      <trkpt lat="47.20912" lon="0.07822">
        <ele>38.2</ele>
      </trkpt>
      <trkpt lat="47.20917" lon="0.07824">
        <ele>36</ele>
        <time>2022-04-30T23:45:51Z</time>
      </trkpt>
      <trkpt lat="47.21074" lon="0.08068">
        <ele>28</ele>
        <time>2022-04-30T23:48:53Z</time>
      </trkpt>
      <trkpt lat="47.2124" lon="0.0833">
        <ele>35</ele>
        <time>2022-04-30T23:52:08Z</time>
      </trkpt>
      <trkpt lat="47.21281" lon="0.08395">
        <ele>35</ele>
        <time>2022-04-30T23:52:56Z</time>
      </trkpt>
      <trkpt lat="47.2131" lon="0.08242">
        <ele>39</ele>
        <time>2022-04-30T23:54:23Z</time>
      </trkpt>
      <trkpt lat="47.2123" lon="0.08019">
        <ele>32</ele>
        <time>2022-04-30T23:56:40Z</time>
      </trkpt>
      <trkpt lat="47.21294" lon="0.07845">
        <ele>29</ele>
        <time>2022-04-30T23:58:28Z</time>
      </trkpt>
      <trkpt lat="47.21356" lon="0.07725">
        <ele>28</ele>
        <time>2022-04-30T23:59:50Z</time>
      </trkpt>
      <trkpt lat="47.21323" lon="0.07726">
        <ele>28</ele>
        <time>2022-05-01T00:00:16Z</time>
      </trkpt>
      <trkpt lat="47.21206" lon="0.08005">
        <ele>31</ele>
        <time>2022-05-01T00:03:14Z</time>
      </trkpt>
      <trkpt lat="47.21161" lon="0.08056">
        <ele>30</ele>
        <time>2022-05-01T00:04:00Z</time>
      </trkpt>
      <trkpt lat="47.21051" lon="0.08259">
        <ele>30</ele>
        <time>2022-05-01T00:06:21Z</time>
      </trkpt>
      <trkpt lat="47.21019" lon="0.08337">
        <ele>28</ele>
        <time>2022-05-01T00:07:11Z</time>
      </trkpt>
      <trkpt lat="47.2099" lon="0.08377">
        <ele>28</ele>
        <time>2022-05-01T00:07:42Z</time>
      </trkpt>
      <trkpt lat="47.2095" lon="0.0846">
        <ele>29</ele>
        <time>2022-05-01T00:08:38Z</time>
      </trkpt>
      <trkpt lat="47.20887" lon="0.08666">
        <ele>31</ele>
        <time>2022-05-01T00:10:41Z</time>
      </trkpt>
      <trkpt lat="47.2082" lon="0.0892">
        <ele>31</ele>
        <time>2022-05-01T00:13:09Z</time>
      </trkpt>
      <trkpt lat="47.20776" lon="0.09038">
        <ele>30</ele>
        <time>2022-05-01T00:14:22Z</time>
      </trkpt>
      <trkpt lat="47.20692" lon="0.09245">
        <ele>30</ele>
        <time>2022-05-01T00:16:33Z</time>
      </trkpt>
      <trkpt lat="47.20604" lon="0.09453">
        <ele>30</ele>
        <time>2022-05-01T00:18:47Z</time>
      </trkpt>
      <trkpt lat="47.20592" lon="0.09497">
        <ele>32</ele>
        <time>2022-05-01T00:19:12Z</time>
      </trkpt>
      <trkpt lat="47.20591" lon="0.09519">
        <ele>32</ele>
        <time>2022-05-01T00:19:24Z</time>
      </trkpt>
      <trkpt lat="47.20584" lon="0.09541">
        <ele>32</ele>
        <time>2022-05-01T00:19:38Z</time>
      </trkpt>
      <trkpt lat="47.20454" lon="0.09448">
        <ele>33</ele>
        <time>2022-05-01T00:21:33Z</time>
      </trkpt>
      <trkpt lat="47.20353" lon="0.0953">
        <ele>30</ele>
        <time>2022-05-01T00:23:06Z</time>
      </trkpt>
      <trkpt lat="47.20337" lon="0.09599">
        <ele>32</ele>
        <time>2022-05-01T00:23:45Z</time>
      </trkpt>
      <trkpt lat="47.20213" lon="0.0985">
        <ele>32</ele>
        <time>2022-05-01T00:26:34Z</time>
      </trkpt>
      <trkpt lat="47.20159" lon="0.09681">
        <ele>30</ele>
        <time>2022-05-01T00:28:16Z</time>
      </trkpt>
      <trkpt lat="47.20081" lon="0.09711">
        <ele>29</ele>
        <time>2022-05-01T00:29:20Z</time>
      </trkpt>
      <trkpt lat="47.19956" lon="0.0978">
        <ele>32</ele>
        <time>2022-05-01T00:31:07Z</time>
      </trkpt>
      <trkpt lat="47.19869" lon="0.09886">
        <ele>29</ele>
        <time>2022-05-01T00:32:38Z</time>
      </trkpt>
      <trkpt lat="47.19867" lon="0.09955">
        <ele>29</ele>
        <time>2022-05-01T00:33:15Z</time>
      </trkpt>
      <trkpt lat="47.19838" lon="0.09993">
        <ele>29</ele>
        <time>2022-05-01T00:33:46Z</time>
      </trkpt>
      <trkpt lat="47.19838" lon="0.10079">
        <ele>31</ele>
        <time>2022-05-01T00:34:33Z</time>
      </trkpt>
      <trkpt lat="47.19883" lon="0.10159">
        <ele>33</ele>
        <time>2022-05-01T00:35:30Z</time>
      </trkpt>
      <trkpt lat="47.19976" lon="0.10106">
        <ele>34</ele>
        <time>2022-05-01T00:36:49Z</time>
      </trkpt>
      <trkpt lat="47.20067" lon="0.10141">
        <ele>34</ele>
        <time>2022-05-01T00:38:05Z</time>
      </trkpt>
      <trkpt lat="47.20146" lon="0.10221">
        <ele>34</ele>
        <time>2022-05-01T00:39:21Z</time>
      </trkpt>
      <trkpt lat="47.2027" lon="0.10435">
        <ele>37</ele>
        <time>2022-05-01T00:41:54Z</time>
      </trkpt>
      <trkpt lat="47.20383" lon="0.10566">
        <ele>32</ele>
        <time>2022-05-01T00:43:50Z</time>
      </trkpt>
      <trkpt lat="47.20469" lon="0.10662">
        <ele>32</ele>
        <time>2022-05-01T00:45:16Z</time>
      </trkpt>
      <trkpt lat="47.20501" lon="0.10728">
        <ele>32</ele>
        <time>2022-05-01T00:46:00Z</time>
      </trkpt>
      <trkpt lat="47.20633" lon="0.10485">
        <ele>30</ele>
        <time>2022-05-01T00:48:49Z</time>
      </trkpt>
      <trkpt lat="47.20712" lon="0.10344">
        <ele>31</ele>
        <time>2022-05-01T00:50:29Z</time>
      </trkpt>
      <trkpt lat="47.20847" lon="0.10195">
        <ele>30</ele>
        <time>2022-05-01T00:52:44Z</time>
      </trkpt>
      <trkpt lat="47.20959" lon="0.09941">
        <ele>27</ele>
        <time>2022-05-01T00:55:29Z</time>
      </trkpt>
      <trkpt lat="47.20986" lon="0.09941">
        <ele>27</ele>
        <time>2022-05-01T00:55:50Z</time>
      </trkpt>
      <trkpt lat="47.21039" lon="0.09785">
        <ele>30</ele>
        <time>2022-05-01T00:57:25Z</time>
      </trkpt>
      <trkpt lat="47.21059" lon="0.09772">
        <ele>30</ele>
        <time>2022-05-01T00:57:43Z</time>
      </trkpt>
      <trkpt lat="47.21228" lon="0.0981">
        <ele>35</ele>
        <time>2022-05-01T00:59:59Z</time>
      </trkpt>
      <trkpt lat="47.21388" lon="0.09852">
        <ele>35</ele>
        <time>2022-05-01T01:02:10Z</time>
      </trkpt>
      <trkpt lat="47.21415" lon="0.09859">
        <ele>36</ele>
        <time>2022-05-01T01:02:32Z</time>
      </trkpt>
      <trkpt lat="47.21627" lon="0.09905">
        <ele>33</ele>
        <time>2022-05-01T01:05:23Z</time>
      </trkpt>
      <trkpt lat="47.21658" lon="0.09934">
        <ele>32</ele>
        <time>2022-05-01T01:05:53Z</time>
      </trkpt>
      <trkpt lat="47.21676" lon="0.09936">
        <ele>31</ele>
        <time>2022-05-01T01:06:07Z</time>
      </trkpt>
      <trkpt lat="47.21668" lon="0.09909">
        <ele>31</ele>
        <time>2022-05-01T01:06:23Z</time>
      </trkpt>
      <trkpt lat="47.2185" lon="0.09871">
        <ele>32</ele>
        <time>2022-05-01T01:08:50Z</time>
      </trkpt>
      <trkpt lat="47.21853" lon="0.09859">
        <ele>32</ele>
        <time>2022-05-01T01:08:57Z</time>
      </trkpt>
      <trkpt lat="47.21904" lon="0.09876">
        <ele>30</ele>
        <time>2022-05-01T01:09:39Z</time>
      </trkpt>
      <trkpt lat="47.21936" lon="0.09985">
        <ele>32</ele>
        <time>2022-05-01T01:10:44Z</time>
      </trkpt>
      <trkpt lat="47.22005" lon="0.10131">
        <ele>33</ele>
        <time>2022-05-01T01:12:20Z</time>
      </trkpt>
      <trkpt lat="47.22083" lon="0.10309">
        <ele>32</ele>
        <time>2022-05-01T01:14:16Z</time>
      </trkpt>
      <trkpt lat="47.22157" lon="0.10504">
        <ele>31</ele>
        <time>2022-05-01T01:16:17Z</time>
      </trkpt>
      <trkpt lat="47.2223" lon="0.10704">
        <ele>29</ele>
        <time>2022-05-01T01:18:20Z</time>
      </trkpt>
      <trkpt lat="47.22242" lon="0.10749">
        <ele>28</ele>
        <time>2022-05-01T01:18:47Z</time>
      </trkpt>
      <trkpt lat="47.22244" lon="0.1078">
        <ele>29</ele>
        <time>2022-05-01T01:19:04Z</time>
      </trkpt>
      <trkpt lat="47.22282" lon="0.1085">
        <ele>29</ele>
        <time>2022-05-01T01:19:52Z</time>
      </trkpt>
      <trkpt lat="47.22364" lon="0.10975">
        <ele>30</ele>
        <time>2022-05-01T01:21:27Z</time>
      </trkpt>
      <trkpt lat="47.22437" lon="0.11081">
        <ele>30</ele>
        <time>2022-05-01T01:22:49Z</time>
      </trkpt>
      <trkpt lat="47.22467" lon="0.11167">
        <ele>30</ele>
        <time>2022-05-01T01:23:42Z</time>
      </trkpt>
      <trkpt lat="47.22432" lon="0.11207">
        <ele>33</ele>
        <time>2022-05-01T01:24:17Z</time>
      </trkpt>
      <trkpt lat="47.22398" lon="0.1125">
        <ele>34</ele>
        <time>2022-05-01T01:24:53Z</time>
      </trkpt>
      <trkpt lat="47.22369" lon="0.11283">
        <ele>33</ele>
        <time>2022-05-01T01:25:22Z</time>
      </trkpt>
      <trkpt lat="47.22365" lon="0.11294">
        <ele>33</ele>
        <time>2022-05-01T01:25:29Z</time>
      </trkpt>
      <trkpt lat="47.22354" lon="0.11297">
        <ele>33</ele>
        <time>2022-05-01T01:25:38Z</time>
      </trkpt>
      <trkpt lat="47.22315" lon="0.11413">
        <ele>33</ele>
        <time>2022-05-01T01:26:48Z</time>
      </trkpt>
      <trkpt lat="47.22336" lon="0.11577">
        <ele>33</ele>
        <time>2022-05-01T01:28:19Z</time>
      </trkpt>
      <trkpt lat="47.22391" lon="0.11525">
        <ele>33</ele>
        <time>2022-05-01T01:29:12Z</time>
      </trkpt>
      <trkpt lat="47.22468" lon="0.11677">
        <ele>34</ele>
        <time>2022-05-01T01:30:55Z</time>
      </trkpt>
      <trkpt lat="47.22598" lon="0.11587">
        <ele>31</ele>
        <time>2022-05-01T01:32:50Z</time>
      </trkpt>
      <trkpt lat="47.22655" lon="0.1191">
        <ele>34</ele>
        <time>2022-05-01T01:35:51Z</time>
      </trkpt>
      <trkpt lat="47.22749" lon="0.12402">
        <ele>36</ele>
        <time>2022-05-01T01:40:29Z</time>
      </trkpt>
      <trkpt lat="47.22662" lon="0.12521">
        <ele>33</ele>
        <time>2022-05-01T01:42:04Z</time>
      </trkpt>
      <trkpt lat="47.22634" lon="0.12477">
        <ele>34</ele>
        <time>2022-05-01T01:42:38Z</time>
      </trkpt>
      <trkpt lat="47.22497" lon="0.12641">
        <ele>35</ele>
        <time>2022-05-01T01:45:02Z</time>
      </trkpt>
    </trkseg>
  </trk>
</gpx>